Time;durP1;ratioP1;P1;durP2;ratioP2;P2;SDS_P1;SDS_P2;PMS_P1;PMS_P2;Temp;Humidity;BMP_temperature;BMP_pressure;BME280_temperature;BME280_humidity;BME280_pressure;Samples;Min_cycle;Max_cycle;Signal;HPM_P1;HPM_P2
2022/03/19 00:00:53;;;;;;;19.70;12.70;;;;;;;6.84;100.00;97660.97;5076787;28;20236;-82
2022/03/19 00:03:20;;;;;;;19.57;12.50;;;;;;;6.88;100.00;97652.56;5077731;28;20208;-82
2022/03/19 00:05:49;;;;;;;16.83;11.70;;;;;;;6.89;100.00;97654.25;5084060;28;20200;-83
2022/03/19 00:08:17;;;;;;;17.27;11.73;;;;;;;7.00;100.00;97664.56;5077102;28;20240;-81
2022/03/19 00:10:44;;;;;;;20.73;12.37;;;;;;;7.05;100.00;97667.59;5077116;28;20206;-82
2022/03/19 00:13:13;;;;;;;20.00;12.20;;;;;;;6.73;100.00;97669.38;5082763;28;20272;-82
2022/03/19 00:15:41;;;;;;;18.30;12.47;;;;;;;6.63;100.00;97654.53;5084578;28;20230;-81
2022/03/19 00:18:08;;;;;;;20.83;14.23;;;;;;;6.72;100.00;97659.66;5091322;28;20217;-82
2022/03/19 00:20:38;;;;;;;20.43;13.80;;;;;;;6.64;100.00;97661.53;5081541;28;20208;-81
2022/03/19 00:23:06;;;;;;;20.17;13.30;;;;;;;6.75;100.00;97653.13;5074130;28;20292;-82
2022/03/19 00:25:34;;;;;;;20.33;13.03;;;;;;;6.80;100.00;97670.38;5079909;28;20211;-82
2022/03/19 00:28:01;;;;;;;18.80;12.63;;;;;;;6.75;100.00;97653.94;5083273;28;20359;-82
2022/03/19 00:30:29;;;;;;;20.17;12.63;;;;;;;6.59;100.00;97655.88;5079164;28;20205;-82
2022/03/19 00:32:56;;;;;;;20.37;13.10;;;;;;;6.34;100.00;97671.22;5083736;28;20259;-82
2022/03/19 00:35:23;;;;;;;21.17;13.07;;;;;;;6.22;100.00;97651.94;5079384;28;20205;-81
2022/03/19 00:37:53;;;;;;;21.43;13.53;;;;;;;6.35;100.00;97656.78;5083861;28;20220;-82
2022/03/19 00:40:23;;;;;;;21.27;12.67;;;;;;;6.42;100.00;97647.03;5084863;28;20212;-82
2022/03/19 00:42:50;;;;;;;26.27;14.10;;;;;;;6.34;100.00;97660.47;5085715;28;20213;-82
2022/03/19 00:45:18;;;;;;;22.80;14.03;;;;;;;6.22;100.00;97661.84;5081484;28;20205;-82
2022/03/19 00:47:47;;;;;;;19.63;13.37;;;;;;;6.34;100.00;97664.00;5078358;28;20225;-82
2022/03/19 00:50:14;;;;;;;22.10;12.93;;;;;;;6.23;100.00;97658.97;5085516;28;20286;-82
2022/03/19 00:52:41;;;;;;;19.47;13.13;;;;;;;6.28;100.00;97643.22;5093876;28;20220;-82
2022/03/19 00:55:09;;;;;;;20.27;13.43;;;;;;;6.45;100.00;97657.44;5078116;28;20204;-82
2022/03/19 00:57:41;;;;;;;20.10;13.30;;;;;;;6.55;100.00;97659.94;5086925;28;20235;-83
2022/03/19 01:00:11;;;;;;;20.47;12.47;;;;;;;6.56;100.00;97656.19;5071095;28;20250;-82
2022/03/19 01:02:39;;;;;;;19.60;12.83;;;;;;;6.41;100.00;97661.47;5082961;28;20209;-82
2022/03/19 01:05:09;;;;;;;19.43;12.27;;;;;;;6.50;100.00;97649.69;5086541;28;20208;-81
2022/03/19 01:07:42;;;;;;;18.40;11.90;;;;;;;6.56;100.00;97658.88;5079213;28;20312;-82
2022/03/19 01:10:11;;;;;;;21.33;12.83;;;;;;;6.59;100.00;97658.56;5079558;28;20237;-82
2022/03/19 01:12:38;;;;;;;22.23;12.03;;;;;;;6.69;100.00;97668.06;5080053;28;20215;-82
2022/03/19 01:15:06;;;;;;;17.63;12.07;;;;;;;6.75;100.00;97663.84;5082952;28;20205;-80
2022/03/19 01:17:33;;;;;;;20.03;12.63;;;;;;;6.79;100.00;97666.03;5083830;28;20307;-83
2022/03/19 01:20:02;;;;;;;19.50;12.23;;;;;;;6.84;100.00;97669.00;5081900;28;20204;-83
2022/03/19 01:22:31;;;;;;;18.63;12.60;;;;;;;6.87;100.00;97669.69;5082172;28;20233;-82
2022/03/19 01:24:59;;;;;;;19.33;12.40;;;;;;;6.75;100.00;97653.13;5081440;28;20229;-80
2022/03/19 01:27:26;;;;;;;21.33;13.07;;;;;;;6.83;100.00;97659.28;5072710;28;20213;-82
2022/03/19 01:29:53;;;;;;;17.87;12.20;;;;;;;6.95;100.00;97666.97;5079150;28;20205;-81
2022/03/19 01:32:20;;;;;;;20.47;12.37;;;;;;;6.90;100.00;97666.63;5084535;28;20207;-81
2022/03/19 01:34:47;;;;;;;20.70;13.03;;;;;;;6.79;100.00;97671.41;5079155;28;20198;-82
2022/03/19 01:37:14;;;;;;;24.63;13.37;;;;;;;6.71;100.00;97667.91;5093503;28;20213;-82
2022/03/19 01:39:43;;;;;;;17.53;11.97;;;;;;;6.65;100.00;97657.84;5083981;28;20207;-82
2022/03/19 01:42:10;;;;;;;20.37;12.43;;;;;;;6.66;100.00;97673.78;5082692;28;20193;-82
2022/03/19 01:44:37;;;;;;;20.13;13.20;;;;;;;6.73;100.00;97676.59;5083309;28;20207;-82
2022/03/19 01:47:10;;;;;;;17.83;13.00;;;;;;;6.75;100.00;97670.06;5084230;28;20203;-82
2022/03/19 01:49:37;;;;;;;18.33;12.43;;;;;;;6.84;100.00;97679.75;5075486;28;20295;-81
2022/03/19 01:52:05;;;;;;;20.57;12.07;;;;;;;6.82;100.00;97670.19;5076730;28;20204;-82
2022/03/19 01:54:34;;;;;;;19.17;12.70;;;;;;;7.00;100.00;97678.84;5082486;28;20267;-82
2022/03/19 01:57:03;;;;;;;20.73;11.97;;;;;;;7.06;100.00;97677.31;5080919;28;20224;-82
2022/03/19 01:59:34;;;;;;;19.47;11.80;;;;;;;7.10;100.00;97676.78;5075096;28;20270;-82
2022/03/19 02:02:03;;;;;;;19.10;12.33;;;;;;;7.17;100.00;97679.59;5080408;28;20201;-82
2022/03/19 02:04:30;;;;;;;17.63;11.47;;;;;;;7.17;100.00;97675.06;5083055;28;20295;-82
2022/03/19 02:06:58;;;;;;;17.80;11.47;;;;;;;7.21;100.00;97678.25;5083158;28;20239;-82
2022/03/19 02:09:25;;;;;;;18.93;11.80;;;;;;;7.09;100.00;97685.84;5080972;28;20225;-82
2022/03/19 02:11:52;;;;;;;19.10;12.17;;;;;;;7.08;100.00;97686.00;5079962;28;20299;-82
2022/03/19 02:14:21;;;;;;;18.90;13.03;;;;;;;7.02;100.00;97682.19;5081847;28;20200;-82
2022/03/19 02:16:49;;;;;;;18.73;12.07;;;;;;;7.11;100.00;97686.50;5079410;28;20255;-82
2022/03/19 02:19:16;;;;;;;17.07;11.60;;;;;;;7.08;100.00;97678.78;5082637;28;20198;-82
2022/03/19 02:21:45;;;;;;;16.97;11.27;;;;;;;7.05;100.00;97675.66;5077525;28;20201;-82
2022/03/19 02:26:57;;;;;;;19.80;11.87;;;;;;;6.40;100.00;97681.25;5059394;28;20209;-81
2022/03/19 02:29:24;;;;;;;17.70;11.67;;;;;;;6.51;100.00;97674.69;5076127;28;20236;-82
2022/03/19 02:31:54;;;;;;;17.93;12.07;;;;;;;6.67;100.00;97680.84;5082377;28;20309;-83
2022/03/19 02:34:21;;;;;;;17.80;11.13;;;;;;;6.77;100.00;97680.63;5076641;28;20222;-82
2022/03/19 02:36:49;;;;;;;18.30;11.80;;;;;;;6.92;100.00;97680.72;5113239;27;20224;-82
2022/03/19 02:39:20;;;;;;;22.23;12.33;;;;;;;6.87;100.00;97673.22;5083833;28;20228;-82
2022/03/19 02:41:49;;;;;;;19.97;12.50;;;;;;;6.49;100.00;97690.94;5080499;28;20208;-81
2022/03/19 02:44:18;;;;;;;20.27;12.53;;;;;;;6.10;100.00;97685.50;5075872;28;20209;-82
2022/03/19 02:46:46;;;;;;;18.33;12.73;;;;;;;5.95;100.00;97673.81;5081367;28;20313;-82
2022/03/19 02:49:15;;;;;;;20.20;12.93;;;;;;;5.89;100.00;97667.25;5077871;28;20310;-82
2022/03/19 02:51:44;;;;;;;21.10;12.97;;;;;;;5.89;100.00;97682.50;5083696;28;20258;-81
2022/03/19 02:54:13;;;;;;;25.03;13.53;;;;;;;5.83;100.00;97678.63;5078071;28;20201;-82
2022/03/19 02:56:43;;;;;;;18.83;12.53;;;;;;;5.96;100.00;97675.44;5071225;28;20209;-82
2022/03/19 02:59:13;;;;;;;19.43;12.57;;;;;;;6.19;100.00;97684.50;5082105;28;20208;-82
2022/03/19 03:01:40;;;;;;;19.87;12.67;;;;;;;6.32;100.00;97683.94;5074024;28;20221;-82
2022/03/19 03:04:08;;;;;;;18.40;12.17;;;;;;;6.37;100.00;97686.97;5079223;28;20201;-82
2022/03/19 03:06:36;;;;;;;18.40;11.70;;;;;;;6.57;100.00;97682.88;5076824;28;20197;-82
2022/03/19 03:09:04;;;;;;;20.33;11.73;;;;;;;6.56;100.00;97675.81;5076749;28;20231;-82
2022/03/19 03:11:31;;;;;;;17.33;11.50;;;;;;;6.30;100.00;97661.81;5080968;28;20246;-81
2022/03/19 03:14:00;;;;;;;17.00;11.43;;;;;;;6.45;100.00;97670.84;5117216;28;20223;-82
2022/03/19 03:16:28;;;;;;;19.23;11.97;;;;;;;6.27;100.00;97664.84;5078257;28;20232;-81
2022/03/19 03:18:58;;;;;;;25.87;12.80;;;;;;;6.23;100.00;97668.88;5078036;28;20221;-82
2022/03/19 03:21:27;;;;;;;18.77;11.53;;;;;;;6.32;100.00;97660.63;5082638;28;20246;-82
2022/03/19 03:23:54;;;;;;;17.03;11.63;;;;;;;6.48;100.00;97665.13;5078146;28;20211;-82
2022/03/19 03:26:22;;;;;;;17.33;11.03;;;;;;;6.75;100.00;97664.69;5081387;28;20201;-82
2022/03/19 03:28:49;;;;;;;18.73;12.10;;;;;;;6.67;100.00;97648.63;5080250;28;20220;-81
2022/03/19 03:31:18;;;;;;;19.73;11.67;;;;;;;6.79;100.00;97666.03;5083543;28;20216;-82
2022/03/19 03:33:45;;;;;;;19.57;12.50;;;;;;;6.90;100.00;97658.56;5087600;28;20207;-82
2022/03/19 03:36:13;;;;;;;17.73;11.67;;;;;;;6.78;100.00;97653.63;5096848;28;20204;-82
2022/03/19 03:38:40;;;;;;;17.07;11.40;;;;;;;6.89;100.00;97660.44;5082610;28;20204;-82
2022/03/19 03:41:07;;;;;;;15.87;10.70;;;;;;;6.89;100.00;97651.56;5086351;28;20208;-82
2022/03/19 03:43:35;;;;;;;20.07;12.23;;;;;;;6.94;100.00;97665.28;5078901;28;20209;-82
2022/03/19 03:46:02;;;;;;;18.03;11.50;;;;;;;6.88;100.00;97663.31;5083270;28;20300;-81
2022/03/19 03:48:31;;;;;;;18.07;11.80;;;;;;;6.70;100.00;97660.88;5080900;28;20274;-83
2022/03/19 03:50:59;;;;;;;17.83;11.50;;;;;;;6.83;100.00;97664.66;5084053;28;20254;-82
2022/03/19 03:53:28;;;;;;;16.07;11.07;;;;;;;6.88;100.00;97663.31;5085860;28;20279;-82
2022/03/19 03:55:56;;;;;;;17.40;11.83;;;;;;;6.89;100.00;97657.75;5084385;28;20243;-82
2022/03/19 03:58:24;;;;;;;16.77;11.53;;;;;;;6.97;100.00;97662.25;5075113;28;20212;-82
2022/03/19 04:00:52;;;;;;;20.57;12.20;;;;;;;6.87;100.00;97659.78;5086019;28;20216;-82
2022/03/19 04:03:19;;;;;;;19.33;12.20;;;;;;;6.89;100.00;97654.25;5087936;28;20203;-81
2022/03/19 04:05:49;;;;;;;19.57;12.70;;;;;;;6.90;100.00;97669.31;5082315;28;20207;-82
2022/03/19 04:08:16;;;;;;;19.27;12.13;;;;;;;6.77;100.00;97660.00;5083729;28;20244;-82
2022/03/19 04:10:43;;;;;;;20.13;11.97;;;;;;;6.91;100.00;97676.38;5080801;28;20227;-82
2022/03/19 04:13:11;;;;;;;18.37;12.13;;;;;;;6.96;100.00;97664.09;5084180;28;20204;-83
2022/03/19 04:15:38;;;;;;;17.37;11.47;;;;;;;6.99;100.00;97665.59;5109392;27;20314;-81
2022/03/19 04:18:05;;;;;;;15.63;11.57;;;;;;;6.98;100.00;97670.13;5079910;28;20209;-82
2022/03/19 04:20:32;;;;;;;17.50;11.70;;;;;;;7.00;100.00;97672.63;5083190;28;20283;-82
2022/03/19 04:23:00;;;;;;;18.03;11.30;;;;;;;7.01;100.00;97669.78;5078577;28;20196;-82
2022/03/19 04:25:28;;;;;;;22.60;12.50;;;;;;;6.99;100.00;97665.59;5077424;28;20283;-82
2022/03/19 04:27:57;;;;;;;20.27;11.93;;;;;;;6.94;100.00;97670.66;5082567;28;20215;-81
2022/03/19 04:30:26;;;;;;;19.03;12.27;;;;;;;6.62;100.00;97669.78;5085918;28;20235;-82
2022/03/19 04:32:56;;;;;;;21.13;12.23;;;;;;;6.49;100.00;97674.84;5075583;28;20209;-81
2022/03/19 04:38:12;;;;;;;18.90;11.87;;;;;;;6.67;100.00;97680.00;5078245;28;20212;-81
2022/03/19 04:40:41;;;;;;;19.03;11.67;;;;;;;6.78;100.00;97674.25;5095898;28;20213;-80
2022/03/19 04:43:09;;;;;;;20.30;11.67;;;;;;;6.81;100.00;97679.25;5071843;28;20212;-81
2022/03/19 04:45:37;;;;;;;20.13;12.33;;;;;;;6.44;100.00;97682.59;5078703;28;20251;-82
2022/03/19 04:48:05;;;;;;;18.27;11.63;;;;;;;6.46;100.00;97675.22;5081421;28;20201;-81
2022/03/19 04:50:33;;;;;;;21.07;12.20;;;;;;;6.56;100.00;97683.03;5084817;28;20359;-81
2022/03/19 04:53:01;;;;;;;17.97;11.53;;;;;;;6.65;100.00;97679.31;5084540;28;20211;-81
2022/03/19 04:55:30;;;;;;;17.90;12.20;;;;;;;6.68;100.00;97684.34;5077117;28;20205;-80
2022/03/19 04:57:57;;;;;;;20.50;12.47;;;;;;;6.57;100.00;97680.19;5076887;28;20300;-82
2022/03/19 05:00:25;;;;;;;17.53;12.17;;;;;;;6.63;100.00;97679.53;5081377;28;20219;-81
2022/03/19 05:02:52;;;;;;;20.87;12.20;;;;;;;6.56;100.00;97686.56;5084982;28;20280;-81
2022/03/19 05:05:24;;;;;;;21.00;12.60;;;;;;;6.33;100.00;97694.50;5085187;28;20200;-81
2022/03/19 05:07:52;;;;;;;21.50;12.60;;;;;;;6.17;100.00;97681.13;5078272;28;20221;-82
2022/03/19 05:13:07;;;;;;;33.73;20.13;;;;;;;6.10;100.00;97679.31;5084075;28;20212;-81
2022/03/19 05:15:34;;;;;;;23.43;13.53;;;;;;;5.93;100.00;97673.97;5084351;28;20239;-82
2022/03/19 05:18:01;;;;;;;21.27;13.00;;;;;;;5.79;100.00;97671.91;5076646;28;20208;-81
2022/03/19 05:20:29;;;;;;;24.90;14.53;;;;;;;5.82;100.00;97671.59;5086590;28;20679;-80
2022/03/19 05:22:56;;;;;;;20.23;12.40;;;;;;;5.97;100.00;97680.66;5091516;28;20201;-81
2022/03/19 05:25:23;;;;;;;18.03;11.80;;;;;;;6.08;100.00;97679.47;5070069;28;20241;-82
2022/03/19 05:27:50;;;;;;;24.63;12.70;;;;;;;6.04;100.00;97673.59;5068378;28;20247;-80
2022/03/19 05:30:19;;;;;;;21.07;12.60;;;;;;;6.16;100.00;97675.94;5059418;28;20307;-82
2022/03/19 05:32:46;;;;;;;19.90;12.97;;;;;;;6.29;100.00;97684.31;5065998;28;20204;-82
2022/03/19 05:35:13;;;;;;;21.57;13.30;;;;;;;6.31;100.00;97669.69;5065859;28;20215;-81
2022/03/19 05:37:41;;;;;;;21.80;12.73;;;;;;;6.28;100.00;97671.91;5060600;28;20240;-81
2022/03/19 05:40:09;;;;;;;19.47;11.73;;;;;;;6.50;100.00;97673.84;5060535;28;20363;-82
2022/03/19 05:42:36;;;;;;;20.43;12.73;;;;;;;6.29;100.00;97689.66;5065056;28;20201;-81
2022/03/19 05:45:04;;;;;;;22.73;13.63;;;;;;;6.08;100.00;97674.09;5076201;28;20212;-82
2022/03/19 05:47:32;;;;;;;24.37;14.97;;;;;;;6.00;100.00;97671.44;5054288;28;20209;-82
2022/03/19 05:49:59;;;;;;;25.17;16.00;;;;;;;6.13;100.00;97682.47;5065992;28;20244;-82
2022/03/19 05:52:26;;;;;;;24.37;15.13;;;;;;;6.06;100.00;97668.91;5059416;28;20304;-81
2022/03/19 05:54:54;;;;;;;24.27;15.33;;;;;;;6.20;100.00;97678.13;5096803;28;20213;-81
2022/03/19 05:57:21;;;;;;;24.23;14.53;;;;;;;6.29;100.00;97673.56;5052173;28;20202;-82
2022/03/19 05:59:49;;;;;;;26.27;17.03;;;;;;;6.02;100.00;97667.59;5054697;28;20206;-80
2022/03/19 06:02:16;;;;;;;31.80;19.67;;;;;;;5.88;100.00;97670.09;5058940;28;20204;-82
2022/03/19 06:04:45;;;;;;;32.67;18.80;;;;;;;5.91;100.00;97677.81;5061846;28;20213;-82
2022/03/19 06:07:12;;;;;;;36.13;20.23;;;;;;;6.00;100.00;97672.28;5058323;28;20225;-82
2022/03/19 06:09:39;;;;;;;36.90;21.70;;;;;;;5.92;100.00;97674.13;5059980;28;20301;-81
2022/03/19 06:12:08;;;;;;;38.37;23.23;;;;;;;6.02;100.00;97677.47;5076071;28;20206;-82
2022/03/19 06:14:35;;;;;;;31.80;20.13;;;;;;;6.01;100.00;97684.69;5072940;28;20270;-82
2022/03/19 06:17:02;;;;;;;26.13;16.90;;;;;;;6.17;100.00;97694.53;5058363;28;20222;-82
2022/03/19 06:19:29;;;;;;;24.37;15.13;;;;;;;6.31;100.00;97690.31;5061738;28;20209;-82
2022/03/19 06:21:58;;;;;;;24.33;15.30;;;;;;;6.37;100.00;97690.50;5063343;28;20319;-81
2022/03/19 06:24:25;;;;;;;24.53;15.50;;;;;;;6.39;100.00;97691.13;5069137;28;20264;-80
2022/03/19 06:26:52;;;;;;;25.43;15.63;;;;;;;6.47;100.00;97687.59;5082580;28;20268;-82
2022/03/19 06:29:21;;;;;;;25.87;16.13;;;;;;;6.53;100.00;97683.41;5080565;28;20213;-82
2022/03/19 06:31:51;;;;;;;29.87;19.17;;;;;;;6.42;100.00;97676.56;5082041;28;20219;-82
2022/03/19 06:34:18;;;;;;;33.47;20.83;;;;;;;6.05;100.00;97671.75;5084079;28;20228;-82
2022/03/19 06:39:32;;;;;;;31.93;20.60;;;;;;;5.89;100.00;97677.13;5078881;28;20212;-82
2022/03/19 06:41:59;;;;;;;34.47;20.80;;;;;;;5.96;100.00;97668.25;5082273;28;20197;-82
2022/03/19 06:44:26;;;;;;;30.10;18.63;;;;;;;6.06;100.00;97665.38;5087284;28;20284;-82
2022/03/19 06:46:53;;;;;;;30.20;17.07;;;;;;;6.22;100.00;97665.34;5081872;28;20220;-81
2022/03/19 06:49:20;;;;;;;26.57;16.10;;;;;;;6.38;100.00;97675.22;5076645;28;20220;-82
2022/03/19 06:51:47;;;;;;;25.93;15.10;;;;;;;6.15;100.00;97677.78;5083390;28;20975;-83
2022/03/19 06:54:14;;;;;;;25.50;15.03;;;;;;;5.75;100.00;97665.22;5071104;28;20303;-82
2022/03/19 06:56:42;;;;;;;25.30;15.43;;;;;;;6.01;100.00;97665.91;5081759;28;20228;-82
2022/03/19 06:59:09;;;;;;;29.57;18.00;;;;;;;5.77;100.00;97652.50;5082103;28;20276;-82
2022/03/19 07:01:37;;;;;;;26.07;16.23;;;;;;;5.73;100.00;97648.47;5075095;28;20212;-82
2022/03/19 07:04:04;;;;;;;25.90;16.70;;;;;;;5.81;100.00;97661.88;5069113;28;20208;-81
2022/03/19 07:06:32;;;;;;;27.93;16.77;;;;;;;5.94;100.00;97658.72;5083101;28;20295;-82
2022/03/19 07:08:59;;;;;;;29.73;19.27;;;;;;;6.05;100.00;97653.81;5083751;28;20228;-83
2022/03/19 07:11:26;;;;;;;29.80;18.93;;;;;;;6.24;100.00;97660.66;5091462;28;20205;-82
2022/03/19 07:13:55;;;;;;;29.40;18.27;;;;;;;6.35;100.00;97654.09;5102744;27;20204;-82
2022/03/19 07:16:22;;;;;;;27.80;18.10;;;;;;;6.51;100.00;97651.38;5120415;27;20305;-82
2022/03/19 07:18:49;;;;;;;28.13;17.27;;;;;;;6.63;100.00;97654.53;5083974;28;20232;-82
2022/03/19 07:21:16;;;;;;;29.43;18.13;;;;;;;6.66;100.00;97644.25;5081300;28;20204;-82
2022/03/19 07:23:44;;;;;;;26.87;17.20;;;;;;;6.47;100.00;97650.88;5114067;27;20216;-82
2022/03/19 07:26:11;;;;;;;31.93;19.43;;;;;;;6.34;100.00;97660.47;5083576;28;20273;-81
2022/03/19 07:28:38;;;;;;;31.30;20.00;;;;;;;6.22;100.00;97651.94;5078527;28;20223;-81
2022/03/19 07:31:06;;;;;;;31.43;18.17;;;;;;;6.33;100.00;97659.63;5077770;28;20224;-82
2022/03/19 07:33:34;;;;;;;34.03;18.73;;;;;;;6.42;100.00;97657.75;5096146;28;20237;-82
2022/03/19 07:36:03;;;;;;;30.30;18.73;;;;;;;6.38;100.00;97656.47;5080777;28;20204;-81
2022/03/19 07:38:31;;;;;;;27.13;17.43;;;;;;;6.56;100.00;97654.34;5083931;28;20216;-82
2022/03/19 07:43:43;;;;;;;22.17;15.23;;;;;;;6.72;100.00;97661.53;5073684;28;20210;-82
2022/03/19 07:46:13;;;;;;;26.40;14.93;;;;;;;6.76;100.00;97654.78;5081176;28;20209;-83
2022/03/19 07:48:41;;;;;;;25.33;15.77;;;;;;;6.84;100.00;97658.28;5084433;28;20282;-79
2022/03/19 07:51:09;;;;;;;28.90;15.60;;;;;;;6.91;100.00;97657.56;5078210;28;20225;-82
2022/03/19 07:53:37;;;;;;;23.00;15.47;;;;;;;6.94;100.00;97652.69;5077042;28;20209;-80
2022/03/19 07:56:06;;;;;;;27.57;17.00;;;;;;;7.06;100.00;97645.09;5081960;28;20208;-82
2022/03/19 07:58:33;;;;;;;25.00;16.40;;;;;;;7.12;100.00;97647.06;5081934;28;20228;-82
2022/03/19 08:01:00;;;;;;;25.87;15.70;;;;;;;7.29;100.00;97631.69;5082172;28;20205;-82
2022/03/19 08:03:29;;;;;;;26.33;16.97;;;;;;;7.32;100.00;97629.44;5093703;28;20298;-82
2022/03/19 08:05:56;;;;;;;25.80;16.90;;;;;;;7.44;100.00;97629.88;5076073;28;20209;-81
2022/03/19 08:08:25;;;;;;;28.20;18.50;;;;;;;7.34;100.00;97634.66;5083532;28;20204;-82
2022/03/19 08:10:52;;;;;;;32.73;19.30;;;;;;;7.45;100.00;97637.78;5076473;28;20338;-82
2022/03/19 08:13:19;;;;;;;30.17;20.07;;;;;;;7.55;100.00;97641.06;5085495;28;20235;-82
2022/03/19 08:15:46;;;;;;;28.50;18.93;;;;;;;7.65;100.00;97639.97;5117704;27;20225;-83
2022/03/19 08:18:13;;;;;;;27.20;18.23;;;;;;;7.76;100.00;97636.84;5085000;28;20296;-83
2022/03/19 08:20:42;;;;;;;30.30;19.30;;;;;;;7.84;100.00;97631.38;5081483;28;20205;-83
2022/03/19 08:23:10;;;;;;;30.20;19.10;;;;;;;7.37;100.00;97627.09;5082366;28;20212;-84
2022/03/19 08:25:40;;;;;;;32.17;20.40;;;;;;;7.20;100.00;97630.91;5082749;28;20324;-83
2022/03/19 08:28:10;;;;;;;37.40;21.53;;;;;;;7.08;100.00;97621.56;5076309;28;20216;-82
2022/03/19 08:30:37;;;;;;;33.17;21.20;;;;;;;7.11;100.00;97614.00;5082455;28;20293;-82
2022/03/19 08:33:04;;;;;;;31.27;21.27;;;;;;;7.25;100.00;97622.28;5079570;28;20209;-82
2022/03/19 08:35:32;;;;;;;33.07;20.77;;;;;;;7.45;100.00;97618.97;5082117;28;20204;-81
2022/03/19 08:40:41;;;;;;;33.47;22.43;;;;;;;7.38;100.00;97615.31;5042599;28;20208;-81
2022/03/19 08:43:08;;;;;;;32.57;22.33;;;;;;;7.51;100.00;97617.38;5081672;28;20292;-81
2022/03/19 08:45:35;;;;;;;32.90;23.33;;;;;;;7.73;100.00;97615.72;5081683;28;20233;-80
2022/03/19 08:48:03;;;;;;;34.67;23.63;;;;;;;7.82;100.00;97628.06;5083571;28;20205;-81
2022/03/19 08:50:30;;;;;;;36.20;23.77;;;;;;;7.96;100.00;97616.50;5091140;28;20216;-81
2022/03/19 08:52:57;;;;;;;34.40;23.53;;;;;;;7.86;100.00;97613.22;5088586;28;20217;-81
2022/03/19 08:55:25;;;;;;;37.57;24.70;;;;;;;7.97;100.00;97618.16;5092288;28;20228;-81
2022/03/19 08:57:52;;;;;;;34.77;23.37;;;;;;;8.14;100.00;97619.69;5089009;28;20197;-80
2022/03/19 09:00:19;;;;;;;36.10;23.83;;;;;;;8.28;100.00;97605.41;5086646;28;20209;-81
2022/03/19 09:02:46;;;;;;;36.83;24.00;;;;;;;8.37;100.00;97600.78;5092044;28;20230;-81
2022/03/19 09:05:14;;;;;;;39.23;24.10;;;;;;;8.58;98.69;97608.97;5088219;28;20200;-80
2022/03/19 09:07:41;;;;;;;34.97;23.83;;;;;;;8.70;97.52;97595.84;5083517;28;20197;-80
2022/03/19 09:10:09;;;;;;;39.17;23.70;;;;;;;8.85;96.58;97601.19;5088816;28;20248;-80
2022/03/19 09:12:38;;;;;;;34.10;23.67;;;;;;;8.95;94.94;97594.47;5090069;28;20292;-80
2022/03/19 09:15:07;;;;;;;36.63;23.53;;;;;;;9.07;93.81;97592.97;5083930;28;20236;-81
2022/03/19 09:17:34;;;;;;;36.97;23.63;;;;;;;9.13;94.85;97604.84;5085838;28;20198;-81
2022/03/19 09:20:01;;;;;;;33.50;23.83;;;;;;;9.03;92.51;97588.13;5079824;28;20206;-81
2022/03/19 09:22:30;;;;;;;33.93;23.43;;;;;;;8.95;94.12;97596.34;5078069;28;20290;-81
2022/03/19 09:24:58;;;;;;;31.57;23.33;;;;;;;9.01;94.45;97591.06;5085396;28;20225;-81
2022/03/19 09:27:25;;;;;;;34.97;23.87;;;;;;;9.01;94.43;97592.91;5083495;28;20292;-80
2022/03/19 09:29:53;;;;;;;38.33;22.77;;;;;;;9.04;94.01;97579.03;5082216;28;20259;-80
2022/03/19 09:32:21;;;;;;;34.83;23.77;;;;;;;9.20;95.12;97594.13;5095226;28;20201;-80
2022/03/19 09:34:51;;;;;;;34.83;23.87;;;;;;;9.22;92.60;97586.69;5089340;28;20299;-80
2022/03/19 09:37:18;;;;;;;35.77;24.57;;;;;;;9.11;91.56;97588.84;5085234;28;20352;-81
2022/03/19 09:39:45;;;;;;;31.83;23.07;;;;;;;9.25;90.36;97597.94;5089044;28;20209;-81
2022/03/19 09:42:14;;;;;;;32.50;22.00;;;;;;;9.44;91.06;97601.88;5084023;28;20190;-81
2022/03/19 09:44:43;;;;;;;33.00;23.10;;;;;;;9.56;89.46;97583.28;5076081;28;20213;-81
2022/03/19 09:47:12;;;;;;;35.30;24.10;;;;;;;9.54;88.96;97585.34;5082901;28;20205;-81
2022/03/19 09:49:39;;;;;;;36.50;22.63;;;;;;;9.64;88.68;97581.28;5084031;28;20205;-80
2022/03/19 09:52:07;;;;;;;36.90;23.20;;;;;;;9.50;89.21;97584.91;5083365;28;20208;-81
2022/03/19 09:54:34;;;;;;;33.53;22.70;;;;;;;9.77;88.82;97576.03;5094127;28;20204;-81
2022/03/19 09:57:01;;;;;;;34.33;23.13;;;;;;;9.93;87.88;97582.16;5086999;28;20205;-81
2022/03/19 09:59:28;;;;;;;32.90;22.53;;;;;;;9.94;86.09;97571.16;5085646;28;20223;-80
2022/03/19 10:01:55;;;;;;;32.67;22.20;;;;;;;9.97;86.35;97569.94;5080856;28;20224;-81
2022/03/19 10:04:25;;;;;;;34.27;23.33;;;;;;;9.96;85.27;97579.88;5081162;28;20224;-81
2022/03/19 10:09:44;;;;;;;35.67;23.17;;;;;;;9.97;87.21;97568.06;5086134;28;20235;-80
2022/03/19 10:12:19;;;;;;;33.57;22.00;;;;;;;9.92;84.40;97561.59;5081457;28;20201;-81
2022/03/19 10:14:48;;;;;;;33.83;23.10;;;;;;;10.24;85.43;97566.41;5077124;28;20220;-81
2022/03/19 10:17:31;;;;;;;32.70;22.03;;;;;;;10.50;83.95;97558.47;5085410;28;20219;-81
2022/03/19 10:20:05;;;;;;;34.20;23.60;;;;;;;10.33;83.11;97561.69;5084444;28;20216;-80
2022/03/19 10:22:33;;;;;;;33.53;21.93;;;;;;;10.51;82.52;97552.03;5083876;28;20215;-80
2022/03/19 10:25:02;;;;;;;33.23;23.00;;;;;;;10.39;82.30;97555.47;5083933;28;20333;-80
2022/03/19 10:27:34;;;;;;;32.53;21.50;;;;;;;10.35;81.98;97565.03;5098769;28;20197;-81
2022/03/19 10:30:10;;;;;;;34.30;22.93;;;;;;;10.37;81.11;97560.28;5075145;28;20257;-80
2022/03/19 10:32:39;;;;;;;34.33;21.73;;;;;;;10.49;80.53;97561.34;5083790;28;20204;-80
2022/03/19 10:35:25;;;;;;;32.03;22.30;;;;;;;10.57;79.54;97551.22;5087242;28;20220;-81
2022/03/19 10:37:52;;;;;;;31.97;22.80;;;;;;;10.59;79.38;97546.44;5089298;28;20189;-81
2022/03/19 10:40:20;;;;;;;30.10;21.77;;;;;;;10.73;79.82;97541.09;5081952;28;20211;-81
2022/03/19 10:42:47;;;;;;;32.40;22.60;;;;;;;10.74;79.93;97545.47;5086385;28;20197;-81
2022/03/19 10:45:24;;;;;;;32.30;22.57;;;;;;;10.88;78.61;97528.28;5080634;28;20200;-82
2022/03/19 10:47:51;;;;;;;34.17;22.67;;;;;;;10.89;77.68;97546.13;5081746;28;20223;-81
2022/03/19 10:50:25;;;;;;;32.53;21.83;;;;;;;11.16;76.82;97539.78;5085500;28;20219;-80
2022/03/19 10:52:54;;;;;;;33.03;23.00;;;;;;;10.98;77.49;97547.63;5082944;28;20224;-81
2022/03/19 10:55:21;;;;;;;34.27;21.53;;;;;;;11.11;77.69;97531.44;5078359;28;20259;-81
2022/03/19 10:57:49;;;;;;;36.13;23.40;;;;;;;11.26;77.04;97533.97;5084986;28;20219;-81
2022/03/19 11:00:18;;;;;;;31.33;22.20;;;;;;;11.09;74.95;97527.28;5079593;28;20200;-81
2022/03/19 11:02:48;;;;;;;33.00;22.37;;;;;;;11.13;76.64;97523.13;5078039;28;20204;-81
2022/03/19 11:05:20;;;;;;;32.43;22.97;;;;;;;10.89;75.99;97513.69;5076987;28;20201;-81
2022/03/19 11:07:49;;;;;;;33.97;22.67;;;;;;;10.93;76.15;97514.97;5077727;28;20522;-81
2022/03/19 11:10:19;;;;;;;31.30;22.20;;;;;;;11.10;76.50;97508.16;5078033;28;20206;-81
2022/03/19 11:12:51;;;;;;;33.33;23.20;;;;;;;11.31;76.18;97510.66;5085780;28;20254;-81
2022/03/19 11:15:20;;;;;;;34.03;22.77;;;;;;;11.37;73.78;97504.44;5077141;28;20225;-81
2022/03/19 11:17:50;;;;;;;32.63;23.00;;;;;;;11.55;74.60;97506.53;5087251;28;20211;-81
2022/03/19 11:20:17;;;;;;;33.13;23.77;;;;;;;11.63;75.07;97519.03;5100546;28;20210;-81
2022/03/19 11:22:47;;;;;;;31.07;22.60;;;;;;;11.38;73.79;97522.34;5092209;28;20212;-81
2022/03/19 11:25:27;;;;;;;30.87;22.37;;;;;;;11.25;74.10;97507.97;5074412;28;20232;-80
2022/03/19 11:27:58;;;;;;;32.87;21.77;;;;;;;11.49;73.62;97517.34;5084912;28;20208;-80
2022/03/19 11:30:28;;;;;;;33.27;21.40;;;;;;;11.61;72.87;97510.28;5076575;28;20508;-81
2022/03/19 11:33:07;;;;;;;31.63;22.77;;;;;;;11.76;72.85;97505.50;5115709;28;20212;-81
2022/03/19 11:35:36;;;;;;;29.67;21.27;;;;;;;11.96;72.92;97492.78;5090231;28;20209;-81
2022/03/19 11:38:11;;;;;;;33.53;21.33;;;;;;;11.92;71.03;97496.13;5100916;28;20211;-80
2022/03/19 11:40:43;;;;;;;31.90;22.47;;;;;;;11.99;70.41;97495.06;5094800;28;20204;-81